Time;durP1;ratioP1;P1;durP2;ratioP2;P2;SDS_P1;SDS_P2;PMS_P1;PMS_P2;Temp;Humidity;BMP_temperature;BMP_pressure;BME280_temperature;BME280_humidity;BME280_pressure;Samples;Min_cycle;Max_cycle;Signal;HPM_P1;HPM_P2
2024/01/05 00:01:06;;;;;;;12.40;7.63;;;1.10;58.30;;;;;;4988942;28;20323;-71
2024/01/05 00:03:34;;;;;;;12.87;7.93;;;1.20;57.80;;;;;;4996868;28;20233;-73
2024/01/05 00:06:05;;;;;;;11.63;7.77;;;1.20;59.10;;;;;;4987287;28;20235;-71
2024/01/05 00:08:33;;;;;;;10.47;7.83;;;1.20;59.60;;;;;;4982163;28;20765;-70
2024/01/05 00:11:02;;;;;;;11.27;8.07;;;1.30;57.60;;;;;;4984954;28;20238;-72
2024/01/05 00:13:30;;;;;;;10.97;7.90;;;1.20;59.30;;;;;;4985731;28;20233;-73
2024/01/05 00:15:59;;;;;;;12.07;8.13;;;1.30;61.50;;;;;;4981926;28;21509;-73
2024/01/05 00:18:28;;;;;;;11.20;7.80;;;1.10;58.00;;;;;;4978184;28;20229;-72
2024/01/05 00:20:56;;;;;;;13.70;8.67;;;1.20;60.30;;;;;;4986105;28;20336;-72
2024/01/05 00:23:26;;;;;;;10.97;8.10;;;1.30;60.10;;;;;;4982773;28;20235;-75
2024/01/05 00:25:55;;;;;;;14.10;8.30;;;1.40;59.00;;;;;;4981563;28;20246;-72
2024/01/05 00:28:24;;;;;;;11.57;7.67;;;1.50;58.60;;;;;;4985754;28;20237;-71
2024/01/05 00:30:53;;;;;;;12.50;8.27;;;1.50;59.50;;;;;;4981594;28;20235;-73
2024/01/05 00:33:22;;;;;;;9.00;6.60;;;1.40;58.70;;;;;;4975571;28;20280;-72
2024/01/05 00:35:50;;;;;;;11.30;6.67;;;1.50;58.90;;;;;;4975714;28;20382;-71
2024/01/05 00:38:19;;;;;;;9.67;6.60;;;1.40;58.00;;;;;;4974959;28;20228;-72
2024/01/05 00:40:49;;;;;;;7.37;5.73;;;1.40;59.90;;;;;;4983382;28;20216;-72
2024/01/05 00:43:17;;;;;;;9.63;5.97;;;1.50;58.80;;;;;;4983825;28;20234;-72
2024/01/05 00:45:46;;;;;;;8.53;6.00;;;1.30;56.80;;;;;;4980541;28;20309;-73
2024/01/05 00:48:14;;;;;;;8.20;5.53;;;1.30;58.30;;;;;;4985038;28;20241;-72
2024/01/05 00:50:43;;;;;;;8.50;5.63;;;1.30;58.60;;;;;;4982494;28;20291;-72
2024/01/05 00:53:11;;;;;;;8.47;5.97;;;1.30;58.60;;;;;;4987360;28;20290;-72
2024/01/05 00:55:40;;;;;;;7.00;5.17;;;1.20;59.10;;;;;;4982697;28;20240;-72
2024/01/05 00:58:10;;;;;;;8.23;5.37;;;1.00;60.10;;;;;;4984508;28;20722;-70
2024/01/05 01:00:38;;;;;;;9.47;5.87;;;1.00;74.00;;;;;;4981876;28;20256;-70
2024/01/05 01:03:07;;;;;;;8.47;6.03;;;0.90;62.10;;;;;;4975691;28;20294;-69
2024/01/05 01:05:35;;;;;;;9.87;6.30;;;1.10;63.20;;;;;;4983267;28;20752;-69
2024/01/05 01:08:05;;;;;;;8.07;5.30;;;1.00;62.80;;;;;;4986956;28;20712;-69
2024/01/05 01:10:33;;;;;;;7.37;5.63;;;1.20;62.00;;;;;;4986212;28;20230;-71
2024/01/05 01:13:02;;;;;;;7.83;5.47;;;1.20;62.30;;;;;;4981777;28;20290;-73
2024/01/05 01:15:32;;;;;;;7.70;5.60;;;1.30;61.90;;;;;;5000864;28;20590;-71
2024/01/05 01:18:02;;;;;;;7.37;5.47;;;1.20;61.30;;;;;;4984224;28;20228;-70
2024/01/05 01:20:31;;;;;;;8.17;6.00;;;1.20;61.20;;;;;;4988756;28;20229;-71
2024/01/05 01:22:59;;;;;;;8.73;5.23;;;1.30;62.50;;;;;;4980915;28;20673;-74
2024/01/05 01:25:28;;;;;;;7.73;5.53;;;1.30;62.70;;;;;;4965526;28;20226;-74
2024/01/05 01:27:57;;;;;;;8.37;5.70;;;1.40;60.20;;;;;;4972301;28;20324;-73
2024/01/05 01:30:26;;;;;;;6.80;5.20;;;1.30;61.00;;;;;;4983903;28;20234;-72
2024/01/05 01:32:56;;;;;;;6.97;5.10;;;1.30;60.90;;;;;;4970263;28;20664;-72
2024/01/05 01:35:24;;;;;;;7.73;5.30;;;1.30;61.20;;;;;;4984137;28;20237;-74
2024/01/05 01:37:53;;;;;;;6.60;4.70;;;1.30;62.40;;;;;;4974010;28;20716;-73
2024/01/05 01:40:21;;;;;;;7.07;4.90;;;1.30;60.70;;;;;;4969375;28;20230;-74
2024/01/05 01:42:50;;;;;;;7.73;5.10;;;1.30;61.50;;;;;;4965473;28;20230;-74
2024/01/05 01:45:18;;;;;;;7.40;4.97;;;1.30;60.90;;;;;;4983294;28;20224;-75
2024/01/05 01:47:47;;;;;;;6.07;4.60;;;1.20;59.80;;;;;;4983728;28;20226;-76
2024/01/05 01:50:18;;;;;;;6.20;4.10;;;1.30;62.90;;;;;;4972410;28;20237;-77
2024/01/05 01:52:48;;;;;;;8.30;4.33;;;1.20;59.60;;;;;;4957944;28;20313;-76
2024/01/05 01:55:18;;;;;;;6.67;4.60;;;1.10;61.20;;;;;;4972351;28;20246;-72
2024/01/05 01:57:47;;;;;;;7.03;4.60;;;1.20;61.00;;;;;;4965585;28;20259;-70
2024/01/05 02:00:18;;;;;;;4.60;3.93;;;1.30;75.80;;;;;;4981920;28;20266;-70
2024/01/05 02:02:47;;;;;;;6.60;4.27;;;1.30;60.30;;;;;;4969991;28;20234;-70
2024/01/05 02:05:19;;;;;;;6.30;4.40;;;1.20;59.90;;;;;;4980753;28;20243;-70
2024/01/05 02:07:48;;;;;;;6.83;4.37;;;1.30;59.60;;;;;;4980680;28;20240;-71
2024/01/05 02:10:18;;;;;;;5.27;3.93;;;1.30;59.70;;;;;;4982253;28;20231;-72
2024/01/05 02:12:46;;;;;;;6.13;4.30;;;1.20;59.00;;;;;;4952087;28;20225;-72
2024/01/05 02:15:15;;;;;;;5.83;3.97;;;1.10;59.90;;;;;;4983368;28;20232;-72
2024/01/05 02:17:44;;;;;;;5.83;4.27;;;1.10;60.50;;;;;;4952632;28;20423;-73
2024/01/05 02:20:12;;;;;;;6.63;4.13;;;1.30;62.20;;;;;;4963981;28;20343;-73
2024/01/05 02:22:51;;;;;;;5.67;3.97;;;1.30;61.40;;;;;;4964212;28;20217;-72
2024/01/05 02:25:20;;;;;;;5.90;3.97;;;1.30;61.50;;;;;;4968444;28;20239;-73
2024/01/05 02:27:49;;;;;;;6.70;3.97;;;1.20;60.40;;;;;;4957400;28;20222;-71
2024/01/05 02:30:21;;;;;;;5.83;3.97;;;1.20;60.00;;;;;;4942720;28;20258;-72
2024/01/05 02:32:50;;;;;;;5.90;4.13;;;1.20;61.30;;;;;;4964320;28;20229;-72
2024/01/05 02:35:19;;;;;;;6.13;4.17;;;1.10;61.50;;;;;;4952270;28;20890;-73
2024/01/05 02:37:47;;;;;;;6.13;3.87;;;1.10;60.40;;;;;;4948151;28;20830;-73
2024/01/05 02:40:16;;;;;;;6.43;3.90;;;1.00;61.50;;;;;;4940124;28;20239;-72
2024/01/05 02:42:46;;;;;;;6.47;3.40;;;1.10;62.90;;;;;;4946886;28;20739;-73
2024/01/05 02:45:20;;;;;;;5.23;3.77;;;1.10;60.10;;;;;;4963232;28;20245;-72
2024/01/05 02:47:49;;;;;;;5.67;3.80;;;1.10;63.00;;;;;;4946250;28;20401;-72
2024/01/05 02:50:19;;;;;;;5.37;3.80;;;1.20;60.90;;;;;;4955224;28;20308;-72
2024/01/05 02:52:47;;;;;;;6.03;3.83;;;1.30;61.40;;;;;;4964355;28;20226;-74
2024/01/05 02:58:03;;;;;;;6.67;3.40;;;1.20;61.30;;;;;;4955296;28;20234;-73
2024/01/05 03:00:31;;;;;;;5.47;3.40;;;1.20;63.10;;;;;;4942523;28;20227;-72
2024/01/05 03:03:00;;;;;;;6.37;3.40;;;1.20;62.60;;;;;;4962625;28;20290;-72
2024/01/05 03:05:28;;;;;;;5.83;3.40;;;1.30;61.80;;;;;;4956955;28;20233;-75
2024/01/05 03:07:57;;;;;;;5.53;3.53;;;1.20;63.80;;;;;;4941167;28;20222;-73
2024/01/05 03:10:26;;;;;;;5.57;3.70;;;1.30;64.10;;;;;;4960891;28;20249;-73
2024/01/05 03:12:55;;;;;;;5.83;3.33;;;1.30;63.20;;;;;;4961809;28;20818;-73
2024/01/05 03:15:25;;;;;;;4.90;3.20;;;1.30;64.60;;;;;;4941105;28;20288;-72
2024/01/05 03:17:55;;;;;;;5.70;3.13;;;1.40;63.50;;;;;;4981692;28;20230;-72
2024/01/05 03:20:24;;;;;;;5.37;3.20;;;1.30;63.20;;;;;;4963401;28;20315;-71
2024/01/05 03:22:52;;;;;;;4.70;3.20;;;1.40;63.50;;;;;;4978562;28;20220;-72
2024/01/05 03:25:21;;;;;;;3.87;2.83;;;1.40;62.70;;;;;;4973677;28;20233;-72
2024/01/05 03:27:49;;;;;;;3.43;2.80;;;1.40;64.10;;;;;;4982278;28;20240;-71
2024/01/05 03:30:18;;;;;;;4.90;2.87;;;1.30;63.70;;;;;;4976407;28;20227;-71
2024/01/05 03:32:48;;;;;;;4.17;2.87;;;1.30;65.00;;;;;;4981026;28;20218;-72
2024/01/05 03:35:16;;;;;;;4.17;2.50;;;1.10;64.10;;;;;;4981264;28;20328;-72
2024/01/05 03:37:45;;;;;;;3.90;2.80;;;1.00;66.50;;;;;;4980038;28;20308;-72
2024/01/05 03:40:14;;;;;;;4.63;2.80;;;1.10;65.30;;;;;;4945679;28;21103;-73
2024/01/05 03:42:42;;;;;;;3.80;2.83;;;1.10;65.40;;;;;;4980594;28;20371;-72
2024/01/05 03:45:11;;;;;;;4.63;2.53;;;1.10;68.50;;;;;;4960096;28;20253;-73
2024/01/05 03:47:39;;;;;;;3.80;2.60;;;1.10;66.90;;;;;;4964909;28;20226;-71
2024/01/05 03:50:10;;;;;;;3.63;2.57;;;1.20;67.70;;;;;;4965657;28;20225;-71
2024/01/05 03:52:38;;;;;;;3.00;2.40;;;1.20;67.40;;;;;;4975516;28;20247;-72
2024/01/05 03:55:07;;;;;;;3.87;2.47;;;1.10;68.00;;;;;;4964150;28;20228;-72
2024/01/05 03:57:36;;;;;;;3.97;2.43;;;1.00;70.10;;;;;;4979708;28;20244;-72
2024/01/05 04:00:07;;;;;;;3.77;2.43;;;1.00;68.60;;;;;;4984001;28;20241;-71
2024/01/05 04:02:36;;;;;;;2.87;1.80;;;1.10;71.00;;;;;;4981510;28;20886;-73
2024/01/05 04:05:05;;;;;;;2.37;1.67;;;1.10;68.40;;;;;;4961575;28;20249;-73
2024/01/05 04:07:36;;;;;;;2.80;1.80;;;0.80;70.80;;;;;;4969333;28;20715;-77
2024/01/05 04:10:05;;;;;;;2.73;1.80;;;1.00;71.90;;;;;;4981252;28;20230;-70
2024/01/05 04:12:34;;;;;;;2.93;1.80;;;1.10;70.20;;;;;;4985455;28;20229;-71
2024/01/05 04:15:03;;;;;;;3.03;1.80;;;1.00;71.30;;;;;;4967454;28;20243;-70
2024/01/05 04:17:32;;;;;;;3.10;1.80;;;1.00;71.00;;;;;;4984909;28;20236;-70
2024/01/05 04:20:00;;;;;;;2.73;1.80;;;0.90;72.50;;;;;;4973110;28;20300;-70
2024/01/05 04:22:30;;;;;;;3.10;1.80;;;0.80;73.80;;;;;;4968650;28;20251;-71
2024/01/05 04:25:01;;;;;;;2.77;1.70;;;0.90;75.40;;;;;;4983796;28;20490;-72
2024/01/05 04:27:29;;;;;;;2.90;1.80;;;1.10;74.30;;;;;;4983551;28;20236;-70
2024/01/05 04:29:58;;;;;;;2.60;1.90;;;1.00;74.20;;;;;;4986820;28;20229;-70
2024/01/05 04:32:26;;;;;;;2.97;1.67;;;1.00;73.80;;;;;;4984445;28;20304;-73
2024/01/05 04:34:55;;;;;;;2.20;1.40;;;1.00;74.10;;;;;;4972235;28;20243;-72
2024/01/05 04:37:23;;;;;;;3.30;1.57;;;1.00;75.60;;;;;;4980776;28;20301;-70
2024/01/05 04:39:52;;;;;;;3.23;1.77;;;1.20;74.30;;;;;;4986227;28;20235;-72
2024/01/05 04:42:26;;;;;;;2.70;1.50;;;1.20;74.30;;;;;;4947653;28;20237;-72
2024/01/05 04:44:55;;;;;;;2.50;1.77;;;1.20;78.20;;;;;;4981156;28;20229;-69
2024/01/05 04:47:24;;;;;;;3.73;1.83;;;1.20;76.10;;;;;;4970988;28;20312;-70
2024/01/05 04:49:52;;;;;;;3.53;2.00;;;1.20;75.00;;;;;;4982988;28;20250;-73
2024/01/05 04:52:21;;;;;;;2.43;1.50;;;1.30;77.00;;;;;;4981099;28;20601;-72
2024/01/05 04:54:50;;;;;;;3.27;1.70;;;1.20;74.90;;;;;;4968954;28;20217;-73
2024/01/05 04:57:18;;;;;;;2.80;1.73;;;1.10;76.20;;;;;;4979950;28;20246;-72
2024/01/05 04:59:49;;;;;;;3.27;1.80;;;1.00;76.70;;;;;;4968078;28;20243;-73
2024/01/05 05:02:17;;;;;;;2.53;1.87;;;1.00;77.50;;;;;;4962388;28;20232;-73
2024/01/05 05:04:46;;;;;;;2.30;1.70;;;1.10;77.90;;;;;;4980314;28;20677;-73
2024/01/05 05:07:16;;;;;;;4.00;1.77;;;1.10;77.90;;;;;;4980255;28;20574;-73
2024/01/05 05:09:44;;;;;;;1.97;1.70;;;1.10;78.20;;;;;;4985625;28;20319;-73
2024/01/05 05:12:13;;;;;;;3.37;2.10;;;1.20;79.20;;;;;;4965160;28;20359;-73
2024/01/05 05:14:42;;;;;;;4.40;2.10;;;1.20;79.00;;;;;;4976998;28;20228;-72
2024/01/05 05:17:12;;;;;;;4.17;2.30;;;1.20;79.30;;;;;;4963007;28;20284;-72
2024/01/05 05:19:40;;;;;;;2.30;1.57;;;1.10;77.70;;;;;;4986505;28;20224;-71
2024/01/05 05:22:09;;;;;;;3.70;1.70;;;1.10;78.40;;;;;;4967236;28;20238;-73
2024/01/05 05:24:37;;;;;;;2.90;1.73;;;1.10;80.40;;;;;;4965004;28;20234;-72
2024/01/05 05:27:06;;;;;;;4.93;2.50;;;1.10;78.70;;;;;;4968344;28;20672;-72
2024/01/05 05:29:34;;;;;;;3.03;2.00;;;1.20;79.00;;;;;;4983905;28;21004;-73
2024/01/05 05:32:03;;;;;;;3.87;1.90;;;1.20;79.40;;;;;;4974530;28;20240;-73
2024/01/05 05:34:33;;;;;;;3.57;1.90;;;1.20;79.60;;;;;;4979294;28;20852;-73
2024/01/05 05:37:02;;;;;;;3.20;1.80;;;1.20;81.00;;;;;;4966884;28;20230;-72
2024/01/05 05:39:30;;;;;;;6.00;1.83;;;1.10;79.40;;;;;;4987443;28;20311;-71
2024/01/05 05:41:59;;;;;;;3.53;2.17;;;1.10;79.10;;;;;;4962461;28;20229;-72
2024/01/05 05:44:27;;;;;;;2.70;2.00;;;1.10;80.50;;;;;;4966922;28;20283;-72
2024/01/05 05:46:56;;;;;;;5.13;3.20;;;1.30;80.90;;;;;;4980300;28;20252;-73
2024/01/05 05:49:24;;;;;;;4.10;2.77;;;1.30;80.70;;;;;;4986767;28;20244;-73
2024/01/05 05:51:54;;;;;;;3.93;2.20;;;1.30;79.30;;;;;;4983080;28;20720;-73
2024/01/05 05:54:23;;;;;;;2.80;2.10;;;1.40;79.00;;;;;;4985048;28;20237;-73
2024/01/05 05:56:52;;;;;;;3.07;2.07;;;1.30;78.30;;;;;;4963245;28;20223;-72
2024/01/05 05:59:20;;;;;;;3.43;1.87;;;1.30;80.20;;;;;;4985781;28;20237;-72
2024/01/05 06:01:49;;;;;;;3.00;1.90;;;1.40;79.80;;;;;;4980103;28;20232;-70
2024/01/05 06:04:17;;;;;;;4.67;1.90;;;1.40;79.90;;;;;;4987531;28;20347;-71
2024/01/05 06:06:47;;;;;;;3.17;1.67;;;1.40;79.60;;;;;;4984950;28;20238;-72
2024/01/05 06:09:17;;;;;;;3.63;2.10;;;1.40;79.70;;;;;;4968605;28;20227;-73
2024/01/05 06:11:46;;;;;;;3.10;2.10;;;1.40;80.50;;;;;;4968074;28;20333;-70
2024/01/05 06:14:15;;;;;;;4.27;2.03;;;1.40;80.10;;;;;;4968237;28;20366;-72
2024/01/05 06:16:43;;;;;;;3.30;1.90;;;1.40;78.50;;;;;;4983113;28;20262;-72
2024/01/05 06:19:12;;;;;;;2.70;1.90;;;1.50;79.70;;;;;;4966279;28;20420;-71
2024/01/05 06:21:40;;;;;;;6.47;2.27;;;1.50;79.70;;;;;;4982101;28;20220;-72
2024/01/05 06:24:09;;;;;;;3.63;2.00;;;1.40;82.40;;;;;;4978692;28;20262;-71
2024/01/05 06:26:39;;;;;;;3.47;2.23;;;1.30;80.20;;;;;;4980605;28;20308;-70
2024/01/05 06:29:08;;;;;;;3.47;2.20;;;1.40;80.80;;;;;;4975808;28;20227;-70
2024/01/05 06:31:36;;;;;;;6.30;2.23;;;1.40;80.90;;;;;;4979464;28;20234;-70
2024/01/05 06:34:05;;;;;;;4.20;2.63;;;1.30;83.30;;;;;;4985104;28;20274;-71
2024/01/05 06:36:34;;;;;;;3.97;2.20;;;1.40;83.10;;;;;;4988281;28;20329;-69
2024/01/05 06:39:02;;;;;;;4.00;2.37;;;1.40;82.40;;;;;;4983687;28;20271;-71
2024/01/05 06:41:31;;;;;;;5.07;2.90;;;1.40;82.10;;;;;;4980855;28;20240;-74
2024/01/05 06:44:02;;;;;;;3.77;2.37;;;1.40;82.40;;;;;;4958221;28;20293;-73
2024/01/05 06:46:30;;;;;;;3.77;2.40;;;1.50;83.90;;;;;;4983387;28;20618;-74
2024/01/05 06:49:00;;;;;;;3.87;2.00;;;1.40;81.70;;;;;;4959556;28;20218;-71
2024/01/05 06:51:30;;;;;;;5.17;2.50;;;1.40;80.40;;;;;;4963058;28;20633;-71
2024/01/05 06:53:59;;;;;;;7.37;3.40;;;1.40;81.50;;;;;;4960025;28;20575;-72
2024/01/05 06:56:31;;;;;;;13.30;6.30;;;1.50;82.70;;;;;;4959778;28;20222;-71
2024/01/05 06:59:02;;;;;;;8.97;5.03;;;1.50;81.80;;;;;;4978349;28;20618;-74
2024/01/05 07:01:32;;;;;;;5.17;2.70;;;1.50;81.10;;;;;;4977098;28;20650;-73
2024/01/05 07:04:01;;;;;;;5.80;2.50;;;1.40;84.00;;;;;;4981543;28;20626;-74
2024/01/05 07:06:30;;;;;;;8.33;4.40;;;1.50;83.00;;;;;;4979729;28;20291;-73
2024/01/05 07:08:59;;;;;;;6.70;3.80;;;1.30;83.60;;;;;;4975957;28;20248;-72
2024/01/05 07:11:27;;;;;;;7.10;4.37;;;1.40;84.50;;;;;;4979983;28;20232;-71
2024/01/05 07:13:56;;;;;;;9.20;5.00;;;1.30;85.60;;;;;;4980839;28;20222;-70
2024/01/05 07:16:26;;;;;;;11.13;5.23;;;1.40;86.40;;;;;;4978180;28;20348;-72
2024/01/05 07:18:55;;;;;;;15.57;8.60;;;1.30;85.40;;;;;;4978998;28;20808;-72
2024/01/05 07:21:24;;;;;;;15.70;8.50;;;1.40;85.50;;;;;;4982124;28;20741;-71
2024/01/05 07:23:52;;;;;;;4.93;2.70;;;1.40;85.50;;;;;;4973373;28;20225;-72
2024/01/05 07:26:22;;;;;;;10.67;6.70;;;1.20;85.20;;;;;;4980928;28;20723;-73
2024/01/05 07:28:50;;;;;;;9.43;6.27;;;1.40;85.80;;;;;;4980608;28;20696;-73
2024/01/05 07:31:23;;;;;;;5.90;4.23;;;1.40;85.60;;;;;;4956796;28;20249;-72
2024/01/05 07:33:53;;;;;;;6.67;4.17;;;1.40;85.00;;;;;;4964614;28;20267;-73
2024/01/05 07:36:22;;;;;;;4.43;2.60;;;1.40;83.50;;;;;;4979433;28;20237;-73
2024/01/05 07:38:51;;;;;;;5.83;3.30;;;1.50;84.00;;;;;;4965988;28;20237;-73
2024/01/05 07:41:20;;;;;;;4.30;3.60;;;1.60;85.40;;;;;;4966324;28;20230;-73
2024/01/05 07:43:48;;;;;;;5.10;3.10;;;1.50;85.50;;;;;;4985753;28;20218;-69
2024/01/05 07:46:19;;;;;;;4.90;3.40;;;1.50;85.80;;;;;;4965647;28;20261;-74
2024/01/05 07:48:48;;;;;;;4.37;3.10;;;1.30;85.60;;;;;;4965832;28;20298;-74
2024/01/05 07:51:21;;;;;;;4.40;3.30;;;1.30;86.20;;;;;;4979192;28;20249;-74
2024/01/05 07:53:50;;;;;;;6.00;2.70;;;1.40;85.80;;;;;;4982197;28;20272;-74
2024/01/05 07:56:19;;;;;;;4.93;2.93;;;1.50;85.70;;;;;;4982146;28;20242;-74
2024/01/05 07:58:47;;;;;;;3.77;2.40;;;1.60;94.00;;;;;;4979074;28;20244;-75
2024/01/05 08:04:03;;;;;;;5.10;2.47;;;1.60;85.80;;;;;;4976411;28;20309;-75
2024/01/05 08:06:33;;;;;;;3.93;2.50;;;1.60;86.30;;;;;;4979338;28;20747;-76
2024/01/05 08:09:02;;;;;;;11.53;6.07;;;1.50;86.20;;;;;;4980577;28;20230;-75
2024/01/05 08:11:31;;;;;;;6.57;4.00;;;1.50;86.70;;;;;;4979057;28;20229;-74
2024/01/05 08:13:59;;;;;;;2.80;2.13;;;1.50;86.20;;;;;;4962722;28;20229;-76
2024/01/05 08:16:28;;;;;;;6.43;2.73;;;1.60;86.30;;;;;;4985468;28;20258;-76
2024/01/05 08:18:56;;;;;;;3.90;2.73;;;1.60;86.30;;;;;;4980459;28;20229;-76
2024/01/05 08:21:25;;;;;;;7.30;4.67;;;1.50;86.20;;;;;;4982836;28;20594;-75
2024/01/05 08:23:56;;;;;;;8.30;4.50;;;1.60;86.20;;;;;;4964654;28;20217;-74
2024/01/05 08:26:24;;;;;;;5.27;3.40;;;1.70;86.10;;;;;;4968256;28;20250;-72
2024/01/05 08:28:53;;;;;;;7.30;2.90;;;1.70;86.80;;;;;;4968945;28;20224;-75
2024/01/05 08:31:22;;;;;;;8.03;4.33;;;1.70;86.00;;;;;;4968106;28;20245;-74
2024/01/05 08:33:50;;;;;;;6.03;3.50;;;1.80;86.00;;;;;;4984769;28;20232;-69
2024/01/05 08:36:19;;;;;;;5.70;3.30;;;1.70;88.30;;;;;;4992871;28;20289;-74
2024/01/05 08:38:47;;;;;;;4.63;3.13;;;1.70;87.50;;;;;;4988113;28;20295;-71
2024/01/05 08:41:18;;;;;;;5.40;3.83;;;1.80;86.50;;;;;;4973298;28;20308;-70
2024/01/05 08:43:46;;;;;;;4.37;2.80;;;1.70;86.60;;;;;;4981804;28;20283;-72
2024/01/05 08:46:15;;;;;;;3.97;2.50;;;1.60;86.10;;;;;;4984138;28;20238;-72
2024/01/05 08:48:45;;;;;;;3.87;2.60;;;1.70;87.00;;;;;;4973278;28;20221;-71
2024/01/05 08:51:14;;;;;;;4.00;2.60;;;1.60;86.80;;;;;;4983905;28;20245;-69
2024/01/05 08:53:42;;;;;;;3.20;2.57;;;1.60;88.20;;;;;;4988540;28;20243;-71
2024/01/05 08:56:11;;;;;;;2.80;2.30;;;1.50;86.10;;;;;;4987516;28;20238;-72
2024/01/05 08:58:41;;;;;;;5.13;2.50;;;1.50;86.60;;;;;;4984402;28;20222;-72
2024/01/05 09:01:10;;;;;;;3.40;2.70;;;1.70;88.40;;;;;;4974286;28;20674;-73
2024/01/05 09:03:38;;;;;;;4.03;2.53;;;1.80;87.30;;;;;;4967412;28;20222;-72
2024/01/05 09:06:07;;;;;;;3.83;2.83;;;1.90;87.20;;;;;;4982743;28;20234;-72
2024/01/05 09:08:37;;;;;;;4.53;3.07;;;1.80;87.30;;;;;;4983521;28;20314;-72
2024/01/05 09:11:05;;;;;;;8.23;3.17;;;1.70;86.20;;;;;;4980821;28;20551;-72
2024/01/05 09:13:34;;;;;;;6.10;3.40;;;1.70;86.80;;;;;;4982233;28;20642;-74
2024/01/05 09:16:08;;;;;;;4.97;3.13;;;1.80;87.30;;;;;;4980506;28;20681;-71
2024/01/05 09:18:38;;;;;;;7.03;4.07;;;1.80;86.60;;;;;;4973261;28;20388;-71
2024/01/05 09:21:07;;;;;;;6.73;4.10;;;1.70;89.30;;;;;;4965766;28;21609;-72
2024/01/05 09:23:36;;;;;;;4.97;3.03;;;1.60;90.60;;;;;;4980030;28;20687;-72
2024/01/05 09:26:05;;;;;;;4.70;3.20;;;1.70;90.20;;;;;;4967475;28;20312;-72
2024/01/05 09:28:34;;;;;;;4.60;2.90;;;1.70;90.30;;;;;;4987180;28;20631;-73
2024/01/05 09:31:05;;;;;;;4.20;3.03;;;1.80;91.20;;;;;;4963133;28;20581;-72
2024/01/05 09:33:35;;;;;;;4.47;3.03;;;1.80;90.90;;;;;;4962771;28;20710;-72
2024/01/05 09:36:04;;;;;;;4.10;2.53;;;1.80;90.60;;;;;;4982470;28;20700;-73
2024/01/05 09:38:33;;;;;;;3.93;2.90;;;1.80;90.70;;;;;;4966733;28;20221;-72
2024/01/05 09:41:02;;;;;;;4.33;2.83;;;1.70;90.50;;;;;;4983804;28;20308;-73
2024/01/05 09:43:31;;;;;;;5.50;2.73;;;1.80;90.80;;;;;;4986850;28;20720;-72
2024/01/05 09:46:00;;;;;;;3.70;2.83;;;1.90;90.80;;;;;;4964283;28;20226;-72
2024/01/05 09:48:29;;;;;;;4.57;3.07;;;1.80;89.40;;;;;;4987258;28;20264;-72
2024/01/05 09:51:18;;;;;;;4.00;2.83;;;1.80;90.20;;;;;;4984925;28;20238;-72
2024/01/05 09:53:46;;;;;;;5.10;2.60;;;1.90;90.80;;;;;;4980415;28;20338;-72
2024/01/05 09:56:16;;;;;;;4.17;2.50;;;1.90;89.30;;;;;;4980006;28;20236;-71
2024/01/05 09:58:46;;;;;;;5.33;2.53;;;1.90;87.10;;;;;;4990627;28;20232;-73
2024/01/05 10:01:24;;;;;;;5.00;2.53;;;2.00;86.90;;;;;;4982840;28;20668;-71
2024/01/05 10:03:56;;;;;;;6.23;1.70;;;2.00;88.70;;;;;;4961630;28;20241;-72
2024/01/05 10:06:26;;;;;;;3.47;2.50;;;2.00;86.30;;;;;;4967892;28;20234;-72
2024/01/05 10:08:56;;;;;;;6.07;2.00;;;2.10;86.80;;;;;;4969384;28;20240;-72
2024/01/05 10:11:35;;;;;;;3.23;1.93;;;2.20;86.20;;;;;;4991906;28;20233;-73
2024/01/05 10:14:07;;;;;;;6.40;1.93;;;2.20;86.40;;;;;;4960707;28;20226;-72
2024/01/05 10:16:38;;;;;;;3.10;2.20;;;2.20;87.00;;;;;;4964898;28;20341;-72
2024/01/05 10:19:12;;;;;;;4.83;3.30;;;2.30;94.50;;;;;;4985537;28;20224;-72
2024/01/05 10:21:43;;;;;;;4.07;2.23;;;2.40;86.80;;;;;;4984389;28;20246;-74
2024/01/05 10:24:16;;;;;;;7.10;2.00;;;2.40;86.50;;;;;;4964977;28;20254;-74
2024/01/05 10:27:02;;;;;;;10.43;3.70;;;2.40;86.80;;;;;;4963271;28;20255;-73
2024/01/05 10:29:31;;;;;;;4.43;2.20;;;2.50;86.60;;;;;;4979729;28;20231;-72
2024/01/05 10:32:12;;;;;;;3.50;1.90;;;2.40;86.50;;;;;;4978070;28;20225;-71
2024/01/05 10:34:42;;;;;;;3.30;1.80;;;2.30;86.30;;;;;;4966462;28;20226;-71
2024/01/05 10:37:13;;;;;;;3.30;1.90;;;2.20;87.30;;;;;;4979347;28;20300;-71
2024/01/05 10:39:46;;;;;;;4.37;1.80;;;2.30;88.40;;;;;;4966184;28;20702;-73
2024/01/05 10:42:20;;;;;;;4.40;2.20;;;2.30;89.40;;;;;;4982395;28;20256;-71
2024/01/05 10:44:52;;;;;;;3.23;2.10;;;2.30;89.40;;;;;;4983247;28;20779;-72
2024/01/05 10:47:22;;;;;;;3.63;2.07;;;2.40;88.50;;;;;;4980957;28;20241;-71
2024/01/05 10:49:54;;;;;;;3.87;2.30;;;2.50;90.30;;;;;;4984690;28;20309;-70
2024/01/05 10:52:30;;;;;;;3.40;2.03;;;2.50;90.50;;;;;;4964211;28;20219;-72
2024/01/05 10:55:02;;;;;;;3.63;2.17;;;2.40;87.20;;;;;;4972289;28;20333;-72
2024/01/05 10:57:37;;;;;;;3.03;2.20;;;2.30;91.70;;;;;;4963758;28;20249;-75
2024/01/05 11:00:07;;;;;;;5.80;2.50;;;2.30;89.70;;;;;;4978671;28;20308;-73
2024/01/05 11:02:40;;;;;;;4.27;2.20;;;2.30;90.70;;;;;;4966505;28;20236;-76
2024/01/05 11:05:11;;;;;;;4.73;2.23;;;2.30;91.70;;;;;;4965902;28;21004;-74
2024/01/05 11:07:43;;;;;;;5.10;2.37;;;2.20;90.40;;;;;;4984775;28;20289;-71
2024/01/05 11:10:28;;;;;;;4.57;2.57;;;2.30;90.50;;;;;;4974886;28;20241;-71
2024/01/05 11:13:11;;;;;;;4.03;2.43;;;2.30;91.30;;;;;;4980700;28;20239;-72
2024/01/05 11:15:57;;;;;;;4.37;2.23;;;2.40;91.30;;;;;;4979430;28;20303;-71
2024/01/05 11:19:00;;;;;;;4.23;2.33;;;2.50;91.20;;;;;;4982085;28;20245;-70
2024/01/05 11:21:43;;;;;;;4.60;2.20;;;2.60;91.00;;;;;;4976203;28;20230;-71
2024/01/05 11:24:15;;;;;;;4.20;2.20;;;2.60;91.20;;;;;;4964528;28;20880;-70
2024/01/05 11:26:49;;;;;;;8.23;3.63;;;2.50;91.10;;;;;;4973711;28;20233;-71
2024/01/05 11:29:49;;;;;;;4.90;2.60;;;2.50;91.80;;;;;;4986031;28;20256;-70
2024/01/05 11:32:33;;;;;;;3.83;2.17;;;2.60;90.70;;;;;;4958361;28;20230;-71
2024/01/05 11:35:02;;;;;;;7.80;2.10;;;2.50;91.00;;;;;;4984803;28;20238;-71
2024/01/05 11:37:32;;;;;;;6.77;3.40;;;2.60;90.90;;;;;;4972620;28;20282;-71
2024/01/05 11:40:03;;;;;;;3.80;2.10;;;2.60;90.60;;;;;;4981212;28;20216;-72
2024/01/05 11:42:34;;;;;;;3.50;1.70;;;2.50;91.80;;;;;;4968736;28;20249;-71
2024/01/05 11:45:05;;;;;;;2.57;1.60;;;2.60;92.00;;;;;;4978440;28;20324;-72
2024/01/05 11:47:44;;;;;;;2.97;1.60;;;2.60;92.20;;;;;;4973032;28;20230;-72
2024/01/05 11:50:26;;;;;;;3.00;1.80;;;2.70;91.90;;;;;;4981229;28;20234;-74
2024/01/05 11:53:09;;;;;;;3.20;1.83;;;2.60;92.20;;;;;;4983465;28;20975;-73
2024/01/05 11:55:42;;;;;;;3.93;2.00;;;2.70;92.00;;;;;;4976755;28;20276;-72
2024/01/05 11:58:16;;;;;;;2.87;1.70;;;2.60;91.80;;;;;;4979571;28;20261;-73
2024/01/05 12:00:46;;;;;;;3.90;1.80;;;2.50;92.60;;;;;;4943084;28;20221;-73
2024/01/05 12:03:16;;;;;;;6.20;1.50;;;2.30;92.90;;;;;;4969116;28;20239;-74
2024/01/05 12:05:44;;;;;;;3.00;1.33;;;2.40;93.50;;;;;;4978110;28;20317;-74
2024/01/05 12:08:18;;;;;;;1.70;1.33;;;2.50;93.70;;;;;;4959348;28;20251;-74
2024/01/05 12:10:53;;;;;;;2.83;1.57;;;2.40;93.00;;;;;;4972054;28;20213;-74
2024/01/05 12:13:24;;;;;;;2.97;1.57;;;2.40;93.50;;;;;;4979973;28;20234;-74
2024/01/05 12:15:54;;;;;;;2.90;1.47;;;2.40;92.60;;;;;;4972014;28;20567;-74
2024/01/05 12:18:30;;;;;;;4.30;1.73;;;2.30;93.10;;;;;;4980524;28;20234;-74
2024/01/05 12:21:06;;;;;;;4.43;1.63;;;2.40;93.30;;;;;;4960937;28;20222;-74
2024/01/05 12:23:37;;;;;;;3.47;1.40;;;2.50;93.90;;;;;;4984484;28;20360;-73
2024/01/05 12:26:09;;;;;;;8.67;2.03;;;2.40;93.20;;;;;;4974520;28;20808;-73
2024/01/05 12:28:40;;;;;;;2.03;1.40;;;2.40;93.30;;;;;;4978863;28;20229;-74
2024/01/05 12:31:10;;;;;;;2.93;1.70;;;2.40;93.70;;;;;;4978220;28;20256;-74
2024/01/05 12:33:40;;;;;;;2.43;1.70;;;2.30;94.00;;;;;;4979387;28;20241;-74
2024/01/05 12:36:12;;;;;;;2.53;1.70;;;2.30;94.00;;;;;;4983361;28;20639;-79
2024/01/05 12:38:42;;;;;;;5.00;1.87;;;2.20;94.20;;;;;;4984549;28;20302;-77
2024/01/05 12:41:14;;;;;;;3.47;1.80;;;2.20;94.60;;;;;;4982870;28;20237;-77
2024/01/05 12:43:49;;;;;;;4.03;1.80;;;2.20;94.40;;;;;;4986878;28;20311;-78
2024/01/05 12:46:19;;;;;;;2.57;1.63;;;2.10;94.60;;;;;;4985836;28;20276;-76
2024/01/05 12:48:48;;;;;;;4.70;1.60;;;2.00;94.80;;;;;;4995650;28;20229;-78
2024/01/05 12:51:21;;;;;;;4.30;1.70;;;2.10;95.10;;;;;;4973585;28;20237;-76
2024/01/05 12:54:02;;;;;;;3.67;1.67;;;2.10;95.30;;;;;;4991352;28;20230;-73
2024/01/05 12:56:34;;;;;;;4.33;1.90;;;2.10;95.60;;;;;;4989608;28;20231;-74
2024/01/05 12:59:03;;;;;;;3.03;1.80;;;2.00;95.90;;;;;;4980342;28;20236;-76
2024/01/05 13:01:32;;;;;;;5.87;1.87;;;2.10;95.30;;;;;;4987320;28;20740;-77
2024/01/05 13:04:01;;;;;;;3.07;1.80;;;2.10;95.40;;;;;;4990872;28;20236;-76
2024/01/05 13:06:30;;;;;;;4.90;2.00;;;2.10;96.00;;;;;;4972964;28;20225;-74
2024/01/05 13:08:59;;;;;;;4.43;2.17;;;2.30;96.90;;;;;;4987049;28;20731;-74
2024/01/05 13:11:28;;;;;;;4.10;2.03;;;2.30;95.40;;;;;;4989591;28;20310;-73
2024/01/05 13:13:58;;;;;;;2.60;1.80;;;2.30;96.30;;;;;;4992309;28;20243;-73
2024/01/05 13:16:28;;;;;;;2.10;1.40;;;2.30;95.60;;;;;;4986891;28;20312;-70